Medkon Istanbul — 3EZT3 — position and weather

sailwx.info

Track history (hours):
 
Tides and Currents Weather Stations Pressure Air Temp Water Temp Dewpoint Dewpoint Depression Visibility Wind Speed Wind Dir Waves Ship Positions

Medkon Istanbul

Last reported at 2017-Nov-01 01:54 UTC. Time now 2017-Nov-19 18:18 UTC.
Position N 40°45' E 029°37'.
Warning: this ship's position is 18 days out of date.

Length 100 m; draft 5.4 m.

Type: Ship. MMSI: 374819000.

Date/timePositionNaut miles runAvg speedWind from/ knotsBaromVisibWave heightAir tempDewpointWater temp
2017-Nov-01 01:54N 40°45' E 029°37'410.0
2017-Nov-01 01:29N 40°45' E 029°31'510.1
2017-Nov-01 01:00N 40°44' E 029°25'4 8.4
2017-Nov-01 00:29N 40°43' E 029°19'2 3.1
2017-Nov-01 00:00N 40°43' E 029°17'0 0.3
2017-Oct-31 23:30N 40°43' E 029°17'0 1.0
2017-Oct-31 23:00N 40°43' E 029°17'4 7.8
2017-Oct-31 22:30N 40°44' E 029°12'5 9.7
2017-Oct-31 22:00N 40°44' E 029°05'5 9.5
2017-Oct-31 21:26N 40°44' E 028°58'  
Track history (hours):
 
Tides and Currents Weather Stations Pressure Air Temp Water Temp Dewpoint Dewpoint Depression Visibility Wind Speed Wind Dir Waves Ship Positions

Medkon Istanbul

Last reported at 2017-Nov-01 01:54 UTC. Time now 2017-Nov-19 18:18 UTC.
Position N 40°45' E 029°37'.
Warning: this ship's position is 18 days out of date.

Length 100 m; draft 5.4 m.

Type: Ship. MMSI: 374819000.

Date/timePositionNaut miles runAvg speedWind from/ knotsBaromVisibWave heightAir tempDewpointWater temp
2017-Nov-01 01:54N 40°45' E 029°37'410.0
2017-Nov-01 01:29N 40°45' E 029°31'510.1
2017-Nov-01 01:00N 40°44' E 029°25'4 8.4
2017-Nov-01 00:29N 40°43' E 029°19'2 3.1
2017-Nov-01 00:00N 40°43' E 029°17'0 0.3
2017-Oct-31 23:30N 40°43' E 029°17'0 1.0
2017-Oct-31 23:00N 40°43' E 029°17'4 7.8
2017-Oct-31 22:30N 40°44' E 029°12'5 9.7
2017-Oct-31 22:00N 40°44' E 029°05'5 9.5
2017-Oct-31 21:26N 40°44' E 028°58'  

Dump ship's entire track history